首页
METAR-TAF:

METAR-TAF

机场 :

弗林特, 密歇根州, 美国

纬度: 42-58-00N, 经度: 083-44-58W, 海拔: 238米

当前天气观测

该预报发布于1小时和9分钟前的06:53 UTC
静风
温度 8°C
湿度 76%
气压 1025 hPa
能見度: 16.1公里
天空无云

METAR: KFNT 010653Z 00000KT 10SM CLR 08/04 A3027 RMK AO2 SLP252 T00830044

时间: 04:02 (08:02 UTC)

预报

该预报发布于2小时和42分钟前的05:20 UTC
预报有效从01日的 06点(UTC)到 02日的 06点(UTC)
风速4节,风向南转西南
能見度: 10公里
少量云层高于25000英尺
从 01日的 1500点(UTC)
风速8节,风向西南
能見度: 10公里
散云层高于5000英尺
多云层高于20000英尺
从 01日的 2000点(UTC)
风速8节,风向南转西南
能見度: 10公里
阴天层高于15000英尺
从 02日的 0200点(UTC)
风速8节,风向
能見度: 10公里
阴天层高于8000英尺
几率 30%
从 02日的 02点(UTC)到 02日的 06点(UTC)
能見度: 8.0公里
阴天层高于5000英尺, 积雨云.
雷暴, 雨

TAF: KFNT 010520Z 0106/0206 20004KT P6SM FEW250 FM011500 22008KT P6SM SCT050 BKN200 FM012000 21008KT P6SM OVC150 FM020200 18008KT P6SM OVC080 PROB30 0202/0206 5SM TSRA OVC050CB

超过4000个机场的气象观测和天气预报(METAR&TAF报告)。

可查询的气象台以黄色和红色小点在地图上表示。

将鼠标移到小点上方,可查看气象台名称。

然后点击查看天气观测和预报。

如需切换地图:点击带黑十字的绿色按钮放大地图;点击带横线的绿色按钮缩小地图;或者点击绿色箭头查看邻近地区的地图。


METAR-TAF: